Time,TemperatureF,DewpointF,PressureIn,WindDirection,WindDirectionDegrees,WindSpeedMPH,WindSpeedGustMPH,Humidity,HourlyPrecipIn,Conditions,Clouds,dailyrainin,SoftwareType,DateUTC
2013-02-03 00:00:00,32.8,32.3,30.11,SE,138,0.0,0.0,98,0.00,,OVC055,0.00,VWS V14.01,2013-02-03 05:00:00,
2013-02-03 00:01:00,32.7,32.2,30.11,SE,138,0.0,0.0,98,0.00,,OVC055,0.00,VWS V14.01,2013-02-03 05:01:00,
2013-02-03 00:06:00,32.6,32.1,30.11,SE,138,0.0,1.0,98,0.00,,OVC055,0.00,VWS V14.01,2013-02-03 05:06:00,
2013-02-03 00:11:00,32.6,32.1,30.10,SE,138,3.0,3.0,98,0.00,,OVC055,0.00,VWS V14.01,2013-02-03 05:11:00,
2013-02-03 00:16:00,32.6,32.1,30.10,SSW,199,1.0,3.0,98,0.00,,OVC055,0.00,VWS V14.01,2013-02-03 05:16:00,
2013-02-03 00:21:00,32.5,32.0,30.10,SSW,200,0.0,3.0,98,0.00,,OVC055,0.00,VWS V14.01,2013-02-03 05:21:00,
2013-02-03 00:26:00,32.4,31.9,30.10,SSW,200,0.0,3.0,98,0.00,,OVC055,0.00,VWS V14.01,2013-02-03 05:26:00,
2013-02-03 00:30:00,32.4,31.9,30.10,SW,233,1.0,3.0,98,0.00,,OVC055,0.00,VWS V14.01,2013-02-03 05:30:00,
2013-02-03 00:31:00,32.4,31.9,30.10,SSW,196,2.0,3.0,98,0.00,,OVC055,0.00,VWS V14.01,2013-02-03 05:31:00,
2013-02-03 00:36:00,32.4,31.9,30.10,SSW,196,0.0,3.0,98,0.00,,OVC055,0.00,VWS V14.01,2013-02-03 05:36:00,
2013-02-03 00:41:00,32.4,31.9,30.10,SSW,196,0.0,3.0,98,0.00,,OVC055,0.00,VWS V14.01,2013-02-03 05:41:00,
2013-02-03 00:46:00,32.3,31.8,30.09,SSW,196,0.0,3.0,98,0.00,,OVC055,0.00,VWS V14.01,2013-02-03 05:46:00,
2013-02-03 00:51:00,32.1,31.6,30.09,SSW,196,0.0,3.0,98,0.00,,OVC055,0.00,VWS V14.01,2013-02-03 05:51:00,
2013-02-03 00:56:00,32.2,31.7,30.09,West,269,1.0,4.0,98,0.00,,OVC055,0.00,VWS V14.01,2013-02-03 05:56:00,
2013-02-03 01:00:00,32.2,31.7,30.09,West,269,0.0,4.0,98,0.00,,OVC055,0.00,VWS V14.01,2013-02-03 06:00:00,
2013-02-03 01:01:00,32.1,31.6,30.09,West,269,1.0,1.0,98,0.00,,OVC055,0.00,VWS V14.01,2013-02-03 06:01:00,
2013-02-03 01:06:00,32.1,31.4,30.09,SW,236,0.0,2.0,97,0.00,,OVC055,0.00,VWS V14.01,2013-02-03 06:06:00,
2013-02-03 01:11:00,32.1,31.4,30.09,SSW,209,1.0,3.0,97,0.00,,OVC055,0.00,VWS V14.01,2013-02-03 06:11:00,
2013-02-03 01:16:00,32.0,31.2,30.09,SSW,209,1.0,3.0,97,0.00,,OVC055,0.00,VWS V14.01,2013-02-03 06:16:00,
2013-02-03 01:21:00,32.1,31.4,30.08,SW,219,0.0,6.0,97,0.00,,OVC055,0.00,VWS V14.01,2013-02-03 06:21:00,
2013-02-03 01:26:00,32.2,31.2,30.08,SW,215,1.0,6.0,96,0.00,,OVC055,0.00,VWS V14.01,2013-02-03 06:26:00,
2013-02-03 01:30:00,32.3,31.3,30.08,SSW,211,0.0,6.0,96,0.00,,OVC055,0.00,VWS V14.01,2013-02-03 06:30:00,
2013-02-03 01:31:00,32.3,31.0,30.08,SSW,192,2.0,2.0,95,0.00,,OVC055,0.00,VWS V14.01,2013-02-03 06:31:00,
2013-02-03 01:36:00,32.4,31.1,30.08,SSW,197,2.0,5.0,95,0.00,,OVC055,0.00,VWS V14.01,2013-02-03 06:36:00,
2013-02-03 01:41:00,32.7,31.2,30.08,South,181,3.0,5.0,94,0.00,,OVC055,0.00,VWS V14.01,2013-02-03 06:41:00,
2013-02-03 01:46:00,33.0,31.2,30.07,SSW,209,3.0,5.0,93,0.00,,OVC055,0.00,VWS V14.01,2013-02-03 06:46:00,
2013-02-03 01:51:00,33.1,31.3,30.08,South,175,3.0,5.0,93,0.00,,OVC055,0.00,VWS V14.01,2013-02-03 06:51:00,
2013-02-03 01:56:00,33.0,31.2,30.07,West,281,0.0,5.0,93,0.00,,OVC055,0.00,VWS V14.01,2013-02-03 06:56:00,
2013-02-03 02:00:00,33.0,31.2,30.07,SSW,194,3.0,5.0,93,0.00,,OVC055,0.00,VWS V14.01,2013-02-03 07:00:00,
2013-02-03 02:01:00,33.0,31.2,30.07,WNW,296,5.0,5.0,93,0.00,,OVC055,0.00,VWS V14.01,2013-02-03 07:01:00,
2013-02-03 02:06:00,33.2,31.1,30.08,WSW,247,1.0,5.0,92,0.00,,OVC055,0.00,VWS V14.01,2013-02-03 07:06:00,
2013-02-03 02:11:00,33.2,30.9,30.07,WSW,247,0.0,5.0,91,0.00,,OVC055,0.00,VWS V14.01,2013-02-03 07:11:00,
2013-02-03 02:16:00,33.2,31.1,30.07,ESE,119,3.0,5.0,92,0.00,,OVC055,0.00,VWS V14.01,2013-02-03 07:16:00,
2013-02-03 02:21:00,33.1,31.3,30.07,WSW,247,0.0,5.0,93,0.00,,OVC055,0.00,VWS V14.01,2013-02-03 07:21:00,
2013-02-03 02:26:00,32.9,31.1,30.07,WSW,247,2.0,5.0,93,0.00,,OVC055,0.00,VWS V14.01,2013-02-03 07:26:00,
2013-02-03 02:30:00,32.9,31.1,30.06,WSW,246,1.0,5.0,93,0.00,,OVC055,0.00,VWS V14.01,2013-02-03 07:30:00,
2013-02-03 02:31:00,32.9,31.4,30.06,WSW,246,1.0,2.0,94,0.00,,OVC055,0.00,VWS V14.01,2013-02-03 07:31:00,
2013-02-03 02:36:00,32.8,31.0,30.07,WNW,294,0.0,3.0,93,0.00,,OVC055,0.00,VWS V14.01,2013-02-03 07:36:00,
2013-02-03 02:41:00,32.8,31.3,30.06,NNE,20,1.0,3.0,94,0.00,,OVC055,0.00,VWS V14.01,2013-02-03 07:41:00,
2013-02-03 02:46:00,32.8,31.3,30.06,East,83,0.0,3.0,94,0.00,,OVC055,0.00,VWS V14.01,2013-02-03 07:46:00,
2013-02-03 02:51:00,32.8,30.7,30.06,SSW,194,0.0,3.0,92,0.00,,OVC055,0.00,VWS V14.01,2013-02-03 07:51:00,
2013-02-03 02:56:00,32.9,30.8,30.06,SSW,194,1.0,3.0,92,0.00,,OVC055,0.00,VWS V14.01,2013-02-03 07:56:00,
2013-02-03 03:00:00,32.8,30.7,30.06,SSW,195,1.0,3.0,92,0.00,,OVC055,0.00,VWS V14.01,2013-02-03 08:00:00,
2013-02-03 03:01:00,32.7,30.6,30.06,SW,235,1.0,3.0,92,0.00,,OVC055,0.00,VWS V14.01,2013-02-03 08:01:00,
2013-02-03 03:06:00,32.6,30.3,30.05,SSW,209,3.0,3.0,91,0.00,,OVC055,0.00,VWS V14.01,2013-02-03 08:06:00,
2013-02-03 03:11:00,32.4,30.1,30.05,SSW,209,2.0,3.0,91,0.00,,OVC055,0.00,VWS V14.01,2013-02-03 08:11:00,
2013-02-03 03:16:00,32.3,29.7,30.05,SSW,209,1.0,3.0,90,0.00,,OVC055,0.00,VWS V14.01,2013-02-03 08:16:00,
2013-02-03 03:21:00,32.1,29.8,30.05,SSW,209,0.0,3.0,91,0.00,,OVC055,0.00,VWS V14.01,2013-02-03 08:21:00,
2013-02-03 03:26:00,31.9,29.6,30.05,SSW,209,0.0,3.0,91,0.00,,OVC055,0.00,VWS V14.01,2013-02-03 08:26:00,
2013-02-03 03:30:00,31.7,29.4,30.05,SSW,209,0.0,3.0,91,0.00,,OVC055,0.00,VWS V14.01,2013-02-03 08:30:00,
2013-02-03 03:31:00,31.6,29.5,30.05,SSW,209,1.0,1.0,92,0.00,,OVC055,0.00,VWS V14.01,2013-02-03 08:31:00,
2013-02-03 03:36:00,31.4,29.4,30.05,WSW,241,1.0,4.0,92,0.00,,OVC055,0.00,VWS V14.01,2013-02-03 08:36:00,
2013-02-03 03:41:00,31.3,28.7,30.05,WSW,241,0.0,4.0,90,0.00,,OVC055,0.00,VWS V14.01,2013-02-03 08:41:00,
2013-02-03 03:46:00,31.2,29.1,30.05,WSW,241,0.0,4.0,92,0.00,,OVC055,0.00,VWS V14.01,2013-02-03 08:46:00,
2013-02-03 03:51:00,31.0,29.0,30.05,WSW,243,0.0,4.0,92,0.00,,OVC055,0.00,VWS V14.01,2013-02-03 08:51:00,
2013-02-03 03:56:00,30.8,28.8,30.04,WSW,243,1.0,4.0,92,0.00,,OVC055,0.00,VWS V14.01,2013-02-03 08:56:00,
2013-02-03 04:00:00,30.7,28.9,30.04,WSW,243,0.0,4.0,93,0.00,,OVC055,0.00,VWS V14.01,2013-02-03 09:00:00,
2013-02-03 04:01:00,30.7,28.9,30.04,WSW,243,0.0,0.0,93,0.00,,OVC055,0.00,VWS V14.01,2013-02-03 09:01:00,
2013-02-03 04:06:00,30.4,28.6,30.04,WSW,243,0.0,2.0,93,0.00,,OVC055,0.00,VWS V14.01,2013-02-03 09:06:00,
2013-02-03 04:11:00,30.1,28.6,30.04,WSW,243,0.0,2.0,94,0.00,,OVC055,0.00,VWS V14.01,2013-02-03 09:11:00,
2013-02-03 04:16:00,29.9,28.4,30.04,WSW,243,0.0,3.0,94,0.00,,OVC055,0.00,VWS V14.01,2013-02-03 09:16:00,
2013-02-03 04:21:00,29.8,28.3,30.04,WSW,243,0.0,3.0,94,0.00,,OVC055,0.00,VWS V14.01,2013-02-03 09:21:00,
2013-02-03 04:25:00,29.9,28.4,30.04,WSW,243,0.0,3.0,94,0.00,,OVC055,0.00,VWS V14.01,2013-02-03 09:25:00,
2013-02-03 04:30:00,29.8,28.0,30.04,WSW,243,0.0,1.0,93,0.00,,OVC055,0.00,VWS V14.01,2013-02-03 09:30:00,
2013-02-03 04:35:00,30.1,28.1,30.04,WSW,243,2.0,2.0,92,0.00,,OVC055,0.00,VWS V14.01,2013-02-03 09:35:00,
2013-02-03 04:40:00,30.6,27.8,30.04,South,181,0.0,4.0,89,0.00,,OVC055,0.00,VWS V14.01,2013-02-03 09:40:00,
2013-02-03 04:45:00,30.8,28.5,30.04,South,181,1.0,4.0,91,0.00,,OVC055,0.00,VWS V14.01,2013-02-03 09:45:00,
2013-02-03 04:50:00,30.6,28.3,30.04,South,181,1.0,4.0,91,0.00,,OVC055,0.00,VWS V14.01,2013-02-03 09:50:00,
2013-02-03 04:55:00,30.3,28.0,30.04,South,181,0.0,4.0,91,0.00,,OVC055,0.00,VWS V14.01,2013-02-03 09:55:00,
2013-02-03 05:00:00,30.2,27.6,30.04,WSW,240,3.0,3.0,90,0.00,,OVC055,0.00,VWS V14.01,2013-02-03 10:00:00,
2013-02-03 05:05:00,30.6,27.8,30.05,South,173,0.0,3.0,89,0.00,,OVC055,0.00,VWS V14.01,2013-02-03 10:05:00,
2013-02-03 05:10:00,30.7,27.9,30.04,West,269,1.0,5.0,89,0.00,,OVC055,0.00,VWS V14.01,2013-02-03 10:10:00,
2013-02-03 05:15:00,30.6,27.8,30.04,SSW,196,3.0,5.0,89,0.00,,OVC055,0.00,VWS V14.01,2013-02-03 10:15:00,
2013-02-03 05:20:00,31.0,27.9,30.04,SSW,206,0.0,5.0,88,0.00,,OVC055,0.00,VWS V14.01,2013-02-03 10:20:00,
2013-02-03 05:25:00,31.2,28.1,30.04,SSW,200,2.0,5.0,88,0.00,,OVC055,0.00,VWS V14.01,2013-02-03 10:25:00,
2013-02-03 05:30:00,31.5,28.1,30.04,SW,222,1.0,2.0,87,0.00,,OVC055,0.00,VWS V14.01,2013-02-03 10:30:00,
2013-02-03 05:35:00,31.7,28.3,30.04,South,179,0.0,3.0,87,0.00,,OVC055,0.00,VWS V14.01,2013-02-03 10:35:00,
2013-02-03 05:40:00,31.7,27.7,30.05,West,261,1.0,4.0,85,0.00,,OVC055,0.00,VWS V14.01,2013-02-03 10:40:00,
2013-02-03 05:45:00,32.0,28.0,30.05,WNW,292,0.0,5.0,85,0.00,,OVC055,0.00,VWS V14.01,2013-02-03 10:45:00,
2013-02-03 05:50:00,32.1,27.8,30.04,WNW,294,0.0,5.0,84,0.00,,OVC055,0.00,VWS V14.01,2013-02-03 10:50:00,
2013-02-03 05:55:00,32.3,28.0,30.04,NNW,342,0.0,5.0,84,0.00,,OVC055,0.00,VWS V14.01,2013-02-03 10:55:00,
2013-02-03 06:00:00,32.4,27.8,30.05,SW,227,2.0,4.0,83,0.00,,OVC055,0.00,VWS V14.01,2013-02-03 11:00:00,
2013-02-03 06:05:00,32.6,28.0,30.05,WSW,247,0.0,4.0,83,0.00,,OVC055,0.00,VWS V14.01,2013-02-03 11:05:00,
2013-02-03 06:10:00,33.0,27.5,30.05,WNW,286,2.0,6.0,80,0.00,,OVC055,0.00,VWS V14.01,2013-02-03 11:10:00,
2013-02-03 06:15:00,33.0,28.1,30.04,WNW,285,0.0,6.0,82,0.00,,OVC055,0.00,VWS V14.01,2013-02-03 11:15:00,
2013-02-03 06:20:00,32.9,28.0,30.04,WSW,242,8.0,9.0,82,0.00,,OVC055,0.00,VWS V14.01,2013-02-03 11:20:00,
2013-02-03 06:25:00,33.2,27.7,30.04,NW,319,0.0,9.0,80,0.00,,OVC055,0.00,VWS V14.01,2013-02-03 11:25:00,
2013-02-03 06:30:00,33.0,27.8,30.04,WSW,238,2.0,2.0,81,0.00,,OVC055,0.00,VWS V14.01,2013-02-03 11:30:00,
2013-02-03 06:35:00,32.8,27.3,30.04,SW,218,2.0,4.0,80,0.00,,OVC055,0.00,VWS V14.01,2013-02-03 11:35:00,
2013-02-03 06:40:00,32.9,27.7,30.04,SSW,211,3.0,4.0,81,0.00,,OVC055,0.00,VWS V14.01,2013-02-03 11:40:00,
2013-02-03 06:45:00,32.9,27.7,30.04,South,173,1.0,4.0,81,0.00,,OVC055,0.00,VWS V14.01,2013-02-03 11:45:00,
2013-02-03 06:50:00,32.7,27.8,30.03,South,175,1.0,9.0,82,0.00,,OVC055,0.00,VWS V14.01,2013-02-03 11:50:00,
2013-02-03 06:55:00,32.8,27.6,30.03,SSW,213,1.0,9.0,81,0.00,,OVC055,0.00,VWS V14.01,2013-02-03 11:55:00,
2013-02-03 07:00:00,32.8,27.9,30.03,NNW,343,1.0,3.0,82,0.00,,OVC055,0.00,VWS V14.01,2013-02-03 12:00:00,
2013-02-03 07:05:00,32.7,27.8,30.03,SE,144,5.0,5.0,82,0.00,,OVC055,0.00,VWS V14.01,2013-02-03 12:05:00,
2013-02-03 07:10:00,32.9,27.7,30.03,West,267,3.0,5.0,81,0.00,,OVC055,0.00,VWS V14.01,2013-02-03 12:10:00,
2013-02-03 07:15:00,32.7,28.1,30.02,NW,320,2.0,5.0,83,0.00,,OVC055,0.00,VWS V14.01,2013-02-03 12:15:00,
2013-02-03 07:20:00,32.6,27.7,30.02,West,279,2.0,5.0,82,0.00,,OVC055,0.00,VWS V14.01,2013-02-03 12:20:00,
2013-02-03 07:25:00,32.6,28.0,30.02,East,80,0.0,5.0,83,0.00,,OVC055,0.00,VWS V14.01,2013-02-03 12:25:00,
2013-02-03 07:30:00,32.5,27.6,30.02,SE,140,1.0,1.0,82,0.00,,OVC055,0.00,VWS V14.01,2013-02-03 12:30:00,
2013-02-03 07:35:00,32.1,27.8,30.01,SE,142,0.0,2.0,84,0.00,,OVC055,0.00,VWS V14.01,2013-02-03 12:35:00,
2013-02-03 07:40:00,31.7,27.4,30.01,SSE,155,3.0,3.0,84,0.00,,OVC055,0.00,VWS V14.01,2013-02-03 12:40:00,
2013-02-03 07:45:00,31.5,27.8,30.01,West,270,0.0,3.0,86,0.00,,OVC055,0.00,VWS V14.01,2013-02-03 12:45:00,
2013-02-03 07:50:00,31.5,27.8,30.00,SSW,207,3.0,3.0,86,0.00,,OVC055,0.00,VWS V14.01,2013-02-03 12:50:00,
2013-02-03 07:55:00,31.9,28.2,30.01,NW,312,1.0,8.0,86,0.00,,OVC055,0.00,VWS V14.01,2013-02-03 12:55:00,
2013-02-03 08:00:00,32.3,28.6,30.02,NW,321,1.0,3.0,86,0.00,,OVC055,0.00,VWS V14.01,2013-02-03 13:00:00,
2013-02-03 08:05:00,33.3,29.0,30.04,NW,305,1.0,7.0,84,0.00,,OVC055,0.00,VWS V14.01,2013-02-03 13:05:00,
2013-02-03 08:10:00,33.9,29.3,30.04,WNW,287,7.0,7.0,83,0.00,,OVC055,0.00,VWS V14.01,2013-02-03 13:10:00,
2013-02-03 08:15:00,34.5,30.2,30.05,North,355,3.0,15.0,84,0.00,,OVC055,0.00,VWS V14.01,2013-02-03 13:15:00,
2013-02-03 08:20:00,34.3,30.8,30.04,West,279,2.0,15.0,87,0.00,,OVC055,0.00,VWS V14.01,2013-02-03 13:20:00,
2013-02-03 08:25:00,34.0,31.1,30.05,SW,228,3.0,15.0,89,0.00,,OVC055,0.00,VWS V14.01,2013-02-03 13:25:00,
2013-02-03 08:30:00,33.7,31.1,30.05,ENE,61,0.0,2.0,90,0.00,,OVC055,0.00,VWS V14.01,2013-02-03 13:30:00,
2013-02-03 08:35:00,33.4,31.1,30.04,SSW,200,0.0,4.0,91,0.00,,OVC055,0.00,VWS V14.01,2013-02-03 13:35:00,
2013-02-03 08:40:00,33.2,31.1,30.03,SSW,205,0.0,4.0,92,0.00,,OVC055,0.00,VWS V14.01,2013-02-03 13:40:00,
2013-02-03 08:45:00,33.1,30.8,30.04,SSE,153,1.0,4.0,91,0.00,,OVC055,0.00,VWS V14.01,2013-02-03 13:45:00,
2013-02-03 08:50:00,33.2,30.9,30.04,SSW,206,1.0,4.0,91,0.00,,OVC055,0.00,VWS V14.01,2013-02-03 13:50:00,
2013-02-03 08:55:00,33.5,31.2,30.05,South,189,2.0,7.0,91,0.00,,OVC055,0.00,VWS V14.01,2013-02-03 13:55:00,
2013-02-03 09:00:00,33.7,31.1,30.05,South,190,3.0,5.0,90,0.00,,OVC055,0.00,VWS V14.01,2013-02-03 14:00:00,
2013-02-03 09:05:00,33.5,31.4,30.05,SW,219,1.0,6.0,92,0.00,,OVC055,0.00,VWS V14.01,2013-02-03 14:05:00,
2013-02-03 09:10:00,33.5,31.7,30.04,SSE,155,0.0,6.0,93,0.00,,OVC055,0.00,VWS V14.01,2013-02-03 14:10:00,
2013-02-03 09:15:00,33.5,31.7,30.04,SSW,194,4.0,6.0,93,0.00,,OVC055,0.00,VWS V14.01,2013-02-03 14:15:00,
2013-02-03 09:20:00,33.6,31.5,30.03,SSW,211,1.0,6.0,92,0.00,,OVC055,0.00,VWS V14.01,2013-02-03 14:20:00,
2013-02-03 09:25:00,33.8,31.7,30.04,SSW,193,0.0,8.0,92,0.00,,OVC055,0.00,VWS V14.01,2013-02-03 14:25:00,
2013-02-03 09:30:00,34.0,31.6,30.04,SSW,199,2.0,3.0,91,0.00,,OVC055,0.00,VWS V14.01,2013-02-03 14:30:00,
2013-02-03 09:35:00,34.3,31.7,30.04,South,171,1.0,7.0,90,0.00,,OVC055,0.00,VWS V14.01,2013-02-03 14:35:00,
2013-02-03 09:40:00,34.5,31.9,30.04,SW,222,0.0,7.0,90,0.00,,OVC055,0.00,VWS V14.01,2013-02-03 14:40:00,
2013-02-03 09:45:00,34.7,32.1,30.04,South,189,1.0,7.0,90,0.00,,OVC055,0.00,VWS V14.01,2013-02-03 14:45:00,
2013-02-03 09:50:00,35.0,32.1,30.04,SW,216,1.0,7.0,89,0.00,,OVC055,0.00,VWS V14.01,2013-02-03 14:50:00,
2013-02-03 09:55:00,35.0,32.1,30.05,SW,225,2.0,7.0,89,0.00,,OVC055,0.00,VWS V14.01,2013-02-03 14:55:00,
2013-02-03 10:00:00,35.1,32.5,30.05,WNW,291,2.0,3.0,90,0.00,,OVC055,0.00,VWS V14.01,2013-02-03 15:00:00,
2013-02-03 10:05:00,35.2,32.6,30.04,SSE,165,2.0,4.0,90,0.01,,OVC055,0.01,VWS V14.01,2013-02-03 15:05:00,
2013-02-03 10:10:00,35.2,32.8,30.04,SSE,164,1.0,4.0,91,0.01,,OVC055,0.01,VWS V14.01,2013-02-03 15:10:00,
2013-02-03 10:15:00,35.3,32.9,30.04,SE,142,3.0,4.0,91,0.01,,OVC055,0.01,VWS V14.01,2013-02-03 15:15:00,
2013-02-03 10:20:00,35.4,33.0,30.03,SW,229,1.0,4.0,91,0.03,,OVC055,0.03,VWS V14.01,2013-02-03 15:20:00,
2013-02-03 10:25:00,35.5,32.9,30.04,SW,216,3.0,5.0,90,0.03,,OVC055,0.03,VWS V14.01,2013-02-03 15:25:00,
2013-02-03 10:30:00,35.5,32.9,30.03,NW,308,0.0,1.0,90,0.04,,OVC055,0.04,VWS V14.01,2013-02-03 15:30:00,
2013-02-03 10:35:00,35.6,33.2,30.03,ENE,69,0.0,2.0,91,0.04,,OVC055,0.04,VWS V14.01,2013-02-03 15:35:00,
2013-02-03 10:40:00,35.8,33.2,30.03,SW,232,5.0,6.0,90,0.04,,OVC055,0.04,VWS V14.01,2013-02-03 15:40:00,
2013-02-03 10:45:00,35.9,32.7,30.03,SSW,210,0.0,7.0,88,0.05,,OVC055,0.05,VWS V14.01,2013-02-03 15:45:00,
2013-02-03 10:50:00,36.2,32.7,30.03,NW,304,1.0,7.0,87,0.05,,OVC055,0.05,VWS V14.01,2013-02-03 15:50:00,
2013-02-03 10:55:00,36.6,33.1,30.03,NNE,15,3.0,7.0,87,0.06,,OVC055,0.06,VWS V14.01,2013-02-03 15:55:00,
2013-02-03 11:00:00,37.0,33.5,30.03,SSE,155,1.0,3.0,87,0.07,,OVC055,0.07,VWS V14.01,2013-02-03 16:00:00,
2013-02-03 11:05:00,37.2,33.1,30.03,SW,220,1.0,5.0,85,0.07,,OVC055,0.07,VWS V14.01,2013-02-03 16:05:00,
2013-02-03 11:10:00,37.4,33.0,30.02,WNW,284,2.0,5.0,84,0.08,,OVC055,0.08,VWS V14.01,2013-02-03 16:10:00,
2013-02-03 11:15:00,37.7,33.3,30.02,NNW,342,2.0,5.0,84,0.08,,OVC055,0.08,VWS V14.01,2013-02-03 16:15:00,
2013-02-03 11:20:00,38.3,33.9,30.02,SE,140,2.0,6.0,84,0.09,,OVC055,0.09,VWS V14.01,2013-02-03 16:20:00,
2013-02-03 11:25:00,38.9,33.9,30.02,NW,315,2.0,6.0,82,0.09,,OVC055,0.09,VWS V14.01,2013-02-03 16:25:00,
2013-02-03 11:30:00,39.6,34.3,30.01,SW,236,1.0,3.0,81,0.06,,OVC055,0.09,VWS V14.01,2013-02-03 16:30:00,
2013-02-03 11:35:00,40.4,35.0,30.01,NW,324,0.0,4.0,81,0.07,,OVC055,0.10,VWS V14.01,2013-02-03 16:35:00,
2013-02-03 11:40:00,40.8,33.8,30.01,WNW,286,3.0,7.0,76,0.07,,OVC055,0.10,VWS V14.01,2013-02-03 16:40:00,
2013-02-03 11:45:00,41.2,34.2,30.01,South,182,1.0,8.0,76,0.07,,OVC055,0.10,VWS V14.01,2013-02-03 16:45:00,
2013-02-03 11:50:00,41.8,34.8,30.00,SSW,200,5.0,8.0,76,0.07,,OVC055,0.10,VWS V14.01,2013-02-03 16:50:00,
2013-02-03 11:55:00,42.0,34.0,30.00,NW,325,14.0,14.0,73,0.08,,OVC055,0.11,VWS V14.01,2013-02-03 16:55:00,
2013-02-03 12:00:00,41.9,32.8,30.00,SW,220,3.0,7.0,70,0.04,,OVC055,0.11,VWS V14.01,2013-02-03 17:00:00,
2013-02-03 12:05:00,42.1,32.3,29.99,West,277,3.0,7.0,68,0.04,,OVC055,0.11,VWS V14.01,2013-02-03 17:05:00,
2013-02-03 12:10:00,42.3,31.8,30.00,SSW,200,2.0,21.0,66,0.04,,OVC055,0.11,VWS V14.01,2013-02-03 17:10:00,
2013-02-03 12:15:00,42.4,31.9,29.99,SW,227,2.0,21.0,66,0.04,,OVC055,0.11,VWS V14.01,2013-02-03 17:15:00,
2013-02-03 12:20:00,42.5,30.4,30.00,NW,308,6.0,21.0,62,0.04,,OVC055,0.11,VWS V14.01,2013-02-03 17:20:00,
2013-02-03 12:25:00,42.7,31.4,29.99,NNW,327,6.0,21.0,64,0.04,,OVC055,0.11,VWS V14.01,2013-02-03 17:25:00,
2013-02-03 12:30:00,43.0,30.9,29.99,WSW,257,7.0,8.0,62,0.02,,OVC055,0.11,VWS V14.01,2013-02-03 17:30:00,
2013-02-03 12:35:00,42.9,30.8,29.99,North,5,5.0,16.0,62,0.02,,OVC055,0.11,VWS V14.01,2013-02-03 17:35:00,
2013-02-03 12:40:00,43.1,30.6,29.99,NNW,344,9.0,16.0,61,0.02,,OVC055,0.11,VWS V14.01,2013-02-03 17:40:00,
2013-02-03 12:44:00,43.1,30.6,29.99,NE,38,4.0,16.0,61,0.02,,OVC055,0.11,VWS V14.01,2013-02-03 17:44:00,
2013-02-03 12:49:00,43.6,29.8,29.98,WSW,244,3.0,16.0,58,0.02,,OVC055,0.11,VWS V14.01,2013-02-03 17:49:00,
2013-02-03 12:54:00,43.6,29.4,29.98,South,186,4.0,16.0,57,0.02,,OVC055,0.11,VWS V14.01,2013-02-03 17:54:00,
2013-02-03 12:59:00,43.4,30.0,29.97,NW,326,2.0,4.0,59,0.00,,OVC055,0.11,VWS V14.01,2013-02-03 17:59:00,
2013-02-03 13:00:00,43.4,30.0,29.98,SSW,211,4.0,16.0,59,0.02,,OVC055,0.11,VWS V14.01,2013-02-03 18:00:00,
2013-02-03 13:04:00,43.4,28.3,29.98,NW,315,4.0,7.0,55,0.00,,OVC055,0.11,VWS V14.01,2013-02-03 18:04:00,
2013-02-03 13:09:00,43.7,29.5,29.97,NNW,346,2.0,7.0,57,0.00,,OVC055,0.11,VWS V14.01,2013-02-03 18:09:00,
2013-02-03 13:14:00,44.2,28.6,29.97,WNW,295,2.0,7.0,54,0.00,,OVC055,0.11,VWS V14.01,2013-02-03 18:14:00,
2013-02-03 13:19:00,44.3,29.6,29.97,SSE,153,2.0,8.0,56,0.00,,OVC055,0.11,VWS V14.01,2013-02-03 18:19:00,
2013-02-03 13:24:00,44.6,28.5,29.97,WSW,250,1.0,8.0,53,0.00,,OVC055,0.11,VWS V14.01,2013-02-03 18:24:00,
2013-02-03 13:29:00,45.1,29.5,29.96,WNW,286,3.0,4.0,54,0.00,,OVC055,0.11,VWS V14.01,2013-02-03 18:29:00,
2013-02-03 13:30:00,45.0,29.4,29.96,WSW,238,2.0,9.0,54,0.00,,OVC055,0.11,VWS V14.01,2013-02-03 18:30:00,
2013-02-03 13:34:00,45.2,28.6,29.97,SW,225,1.0,4.0,52,0.00,,OVC055,0.11,VWS V14.01,2013-02-03 18:34:00,
2013-02-03 13:39:00,45.1,27.6,29.97,NNW,344,1.0,8.0,50,0.00,,OVC055,0.11,VWS V14.01,2013-02-03 18:39:00,
2013-02-03 13:44:00,44.9,26.9,29.96,WSW,245,0.0,8.0,49,0.00,,OVC055,0.11,VWS V14.01,2013-02-03 18:44:00,
2013-02-03 13:49:00,44.8,27.3,29.97,NW,306,6.0,8.0,50,0.00,,OVC055,0.11,VWS V14.01,2013-02-03 18:49:00,
2013-02-03 13:54:00,44.6,27.6,29.96,WNW,284,2.0,8.0,51,0.00,,OVC055,0.11,VWS V14.01,2013-02-03 18:54:00,
2013-02-03 13:59:00,44.8,28.7,29.96,West,281,3.0,3.0,53,0.00,,OVC055,0.11,VWS V14.01,2013-02-03 18:59:00,
2013-02-03 14:00:00,44.8,28.7,29.96,WNW,298,1.0,8.0,53,0.00,,OVC055,0.11,VWS V14.01,2013-02-03 19:00:00,
2013-02-03 14:04:00,44.9,28.4,29.96,SSW,202,4.0,10.0,52,0.00,,OVC055,0.11,VWS V14.01,2013-02-03 19:04:00,
2013-02-03 14:09:00,44.7,28.2,29.96,NNW,332,2.0,10.0,52,0.00,,OVC055,0.11,VWS V14.01,2013-02-03 19:09:00,
2013-02-03 14:14:00,45.0,27.5,29.96,SSW,195,1.0,10.0,50,0.00,,OVC055,0.11,VWS V14.01,2013-02-03 19:14:00,
2013-02-03 14:19:00,45.2,27.7,29.96,WNW,284,9.0,10.0,50,0.00,,OVC055,0.11,VWS V14.01,2013-02-03 19:19:00,
2013-02-03 14:24:00,45.1,27.6,29.96,South,189,3.0,10.0,50,0.00,,OVC055,0.11,VWS V14.01,2013-02-03 19:24:00,
2013-02-03 14:29:00,45.2,28.6,29.97,WNW,287,3.0,5.0,52,0.00,,OVC055,0.11,VWS V14.01,2013-02-03 19:29:00,
2013-02-03 14:30:00,45.2,28.6,29.97,SW,228,5.0,10.0,52,0.00,,OVC055,0.11,VWS V14.01,2013-02-03 19:30:00,
2013-02-03 14:34:00,45.0,27.0,29.96,WNW,288,1.0,8.0,49,0.00,,OVC055,0.11,VWS V14.01,2013-02-03 19:34:00,
2013-02-03 14:39:00,45.0,27.5,29.97,NW,309,1.0,8.0,50,0.00,,OVC055,0.11,VWS V14.01,2013-02-03 19:39:00,
2013-02-03 14:44:00,45.2,27.7,29.97,West,279,2.0,8.0,50,0.00,,OVC055,0.11,VWS V14.01,2013-02-03 19:44:00,
2013-02-03 14:49:00,45.2,27.2,29.96,West,269,5.0,8.0,49,0.00,,OVC055,0.11,VWS V14.01,2013-02-03 19:49:00,
2013-02-03 14:54:00,45.4,27.9,29.96,NW,315,4.0,8.0,50,0.00,,OVC055,0.11,VWS V14.01,2013-02-03 19:54:00,
2013-02-03 14:59:00,45.5,27.5,29.96,NNW,335,6.0,6.0,49,0.00,,OVC055,0.11,VWS V14.01,2013-02-03 19:59:00,
2013-02-03 15:00:00,45.5,27.5,29.96,WNW,296,4.0,8.0,49,0.00,,OVC055,0.11,VWS V14.01,2013-02-03 20:00:00,
2013-02-03 15:04:00,45.7,29.1,29.97,WSW,246,3.0,6.0,52,0.00,,OVC055,0.11,VWS V14.01,2013-02-03 20:04:00,
2013-02-03 15:09:00,45.8,28.2,29.97,SSW,200,3.0,8.0,50,0.00,,OVC055,0.11,VWS V14.01,2013-02-03 20:09:00,
2013-02-03 15:14:00,45.7,28.6,29.97,WSW,255,4.0,8.0,51,0.00,,OVC055,0.11,VWS V14.01,2013-02-03 20:14:00,
2013-02-03 15:19:00,45.4,27.9,29.97,NW,314,3.0,8.0,50,0.00,,OVC055,0.11,VWS V14.01,2013-02-03 20:19:00,
2013-02-03 15:24:00,45.4,28.4,29.97,WNW,298,2.0,8.0,51,0.00,,OVC055,0.11,VWS V14.01,2013-02-03 20:24:00,
2013-02-03 15:29:00,45.1,27.1,29.97,NW,323,3.0,5.0,49,0.00,,OVC055,0.11,VWS V14.01,2013-02-03 20:29:00,
2013-02-03 15:30:00,45.1,27.6,29.98,NW,316,5.0,8.0,50,0.00,,OVC055,0.11,VWS V14.01,2013-02-03 20:30:00,
2013-02-03 15:34:00,44.5,28.0,29.98,WSW,248,2.0,8.0,52,0.00,,OVC055,0.11,VWS V14.01,2013-02-03 20:34:00,
2013-02-03 15:39:00,44.1,27.6,29.98,WNW,303,2.0,8.0,52,0.00,,OVC055,0.11,VWS V14.01,2013-02-03 20:39:00,
2013-02-03 15:44:00,44.0,27.0,29.98,North,350,1.0,8.0,51,0.00,,OVC055,0.11,VWS V14.01,2013-02-03 20:44:00,
2013-02-03 15:49:00,44.1,27.1,29.98,ENE,65,1.0,8.0,51,0.00,,OVC055,0.11,VWS V14.01,2013-02-03 20:49:00,
2013-02-03 15:54:00,44.2,26.8,29.98,SSW,213,5.0,8.0,50,0.00,,OVC055,0.11,VWS V14.01,2013-02-03 20:54:00,
2013-02-03 15:59:00,43.6,27.1,29.99,West,279,3.0,3.0,52,0.00,,OVC055,0.11,VWS V14.01,2013-02-03 20:59:00,
2013-02-03 16:00:00,43.6,27.1,29.99,WNW,294,3.0,9.0,52,0.00,,OVC055,0.11,VWS V14.01,2013-02-03 21:00:00,
2013-02-03 16:04:00,43.1,26.7,29.99,WSW,254,4.0,7.0,52,0.00,,OVC055,0.11,VWS V14.01,2013-02-03 21:04:00,
2013-02-03 16:09:00,42.7,26.8,29.99,South,183,3.0,7.0,53,0.00,,OVC055,0.11,VWS V14.01,2013-02-03 21:09:00,
2013-02-03 16:14:00,42.3,25.9,30.00,SSW,194,3.0,10.0,52,0.00,,OVC055,0.11,VWS V14.01,2013-02-03 21:14:00,
2013-02-03 16:19:00,42.2,26.3,30.00,SW,230,2.0,13.0,53,0.00,,OVC055,0.11,VWS V14.01,2013-02-03 21:19:00,
2013-02-03 16:24:00,42.0,27.0,30.00,South,178,3.0,13.0,55,0.00,,OVC055,0.11,VWS V14.01,2013-02-03 21:24:00,
2013-02-03 16:29:00,41.8,26.8,30.00,WSW,245,5.0,5.0,55,0.00,,OVC055,0.11,VWS V14.01,2013-02-03 21:29:00,
2013-02-03 16:30:00,41.8,26.8,30.00,WSW,256,4.0,13.0,55,0.00,,OVC055,0.11,VWS V14.01,2013-02-03 21:30:00,
2013-02-03 16:34:00,41.6,27.5,30.00,SSE,154,3.0,10.0,57,0.00,,OVC055,0.11,VWS V14.01,2013-02-03 21:34:00,
2013-02-03 16:39:00,41.4,26.9,30.00,SW,229,2.0,10.0,56,0.00,,OVC055,0.11,VWS V14.01,2013-02-03 21:39:00,
2013-02-03 16:44:00,41.2,27.1,30.00,WSW,247,1.0,10.0,57,0.00,,OVC055,0.11,VWS V14.01,2013-02-03 21:44:00,
2013-02-03 16:49:00,41.0,27.4,30.01,South,182,1.0,10.0,58,0.00,,OVC055,0.11,VWS V14.01,2013-02-03 21:49:00,
2013-02-03 16:54:00,40.9,26.9,30.01,NW,306,0.0,10.0,57,0.00,,OVC055,0.11,VWS V14.01,2013-02-03 21:54:00,
2013-02-03 16:59:00,40.8,27.6,30.01,NNW,333,2.0,10.0,59,0.00,,OVC055,0.11,VWS V14.01,2013-02-03 21:59:00,
2013-02-03 17:00:00,40.8,27.6,30.01,NNW,333,2.0,10.0,59,0.00,,OVC055,0.11,VWS V14.01,2013-02-03 22:00:00,
2013-02-03 17:04:00,40.5,28.1,30.01,WSW,247,0.0,5.0,61,0.00,,OVC055,0.11,VWS V14.01,2013-02-03 22:04:00,
2013-02-03 17:09:00,40.3,27.5,30.01,WNW,288,0.0,9.0,60,0.00,,OVC055,0.11,VWS V14.01,2013-02-03 22:09:00,
2013-02-03 17:14:00,40.0,27.2,30.02,WSW,240,3.0,9.0,60,0.00,,OVC055,0.11,VWS V14.01,2013-02-03 22:14:00,
2013-02-03 17:19:00,39.8,27.1,30.02,NW,313,5.0,9.0,60,0.00,,OVC055,0.11,VWS V14.01,2013-02-03 22:19:00,
2013-02-03 17:24:00,39.7,26.6,30.01,SW,235,1.0,9.0,59,0.00,,OVC055,0.11,VWS V14.01,2013-02-03 22:24:00,
2013-02-03 17:29:00,39.5,26.4,30.02,SSW,212,0.0,9.0,59,0.00,,OVC055,0.11,VWS V14.01,2013-02-03 22:29:00,
2013-02-03 17:30:00,39.5,26.4,30.02,SSW,212,0.0,9.0,59,0.00,,OVC055,0.11,VWS V14.01,2013-02-03 22:30:00,
2013-02-03 17:34:00,39.4,26.3,30.02,NW,315,1.0,8.0,59,0.00,,OVC055,0.11,VWS V14.01,2013-02-03 22:34:00,
2013-02-03 17:39:00,39.2,26.5,30.02,NW,304,4.0,8.0,60,0.00,,OVC055,0.11,VWS V14.01,2013-02-03 22:39:00,
2013-02-03 17:44:00,39.3,25.8,30.02,WSW,253,1.0,9.0,58,0.00,,OVC055,0.11,VWS V14.01,2013-02-03 22:44:00,
2013-02-03 17:49:00,39.3,26.2,30.02,NW,313,4.0,9.0,59,0.00,,OVC055,0.11,VWS V14.01,2013-02-03 22:49:00,
2013-02-03 17:54:00,39.0,25.9,30.03,WSW,238,0.0,9.0,59,0.00,,OVC055,0.11,VWS V14.01,2013-02-03 22:54:00,
2013-02-03 17:59:00,38.7,26.0,30.03,SSW,209,2.0,9.0,60,0.00,,OVC055,0.11,VWS V14.01,2013-02-03 22:59:00,
2013-02-03 18:00:00,38.7,26.0,30.03,SSW,209,1.0,9.0,60,0.00,,OVC055,0.11,VWS V14.01,2013-02-03 23:00:00,
2013-02-03 18:04:00,38.6,25.9,30.02,NNW,332,1.0,8.0,60,0.00,,OVC055,0.11,VWS V14.01,2013-02-03 23:04:00,
2013-02-03 18:09:00,38.6,26.3,30.02,NNW,345,1.0,8.0,61,0.00,,OVC055,0.11,VWS V14.01,2013-02-03 23:09:00,
2013-02-03 18:14:00,38.5,25.8,30.02,SSW,203,1.0,8.0,60,0.00,,OVC055,0.11,VWS V14.01,2013-02-03 23:14:00,
2013-02-03 18:19:00,38.4,26.1,30.02,WSW,246,7.0,8.0,61,0.00,,OVC055,0.11,VWS V14.01,2013-02-03 23:19:00,
2013-02-03 18:24:00,38.2,25.5,30.03,WSW,239,7.0,9.0,60,0.00,,OVC055,0.11,VWS V14.01,2013-02-03 23:24:00,
2013-02-03 18:29:00,38.3,25.6,30.02,South,171,2.0,9.0,60,0.00,,OVC055,0.11,VWS V14.01,2013-02-03 23:29:00,
2013-02-03 18:30:00,38.3,25.6,30.02,South,175,3.0,9.0,60,0.00,,OVC055,0.11,VWS V14.01,2013-02-03 23:30:00,
2013-02-03 18:34:00,38.3,25.6,30.02,West,281,1.0,5.0,60,0.00,,OVC055,0.11,VWS V14.01,2013-02-03 23:34:00,
2013-02-03 18:39:00,38.0,25.8,30.02,SSW,206,2.0,8.0,61,0.00,,OVC055,0.11,VWS V14.01,2013-02-03 23:39:00,
2013-02-03 18:44:00,37.8,26.0,30.02,SW,217,2.0,8.0,62,0.00,,OVC055,0.11,VWS V14.01,2013-02-03 23:44:00,
2013-02-03 18:49:00,37.7,25.9,30.02,WNW,282,1.0,10.0,62,0.00,,OVC055,0.11,VWS V14.01,2013-02-03 23:49:00,
2013-02-03 18:54:00,37.5,25.3,30.02,West,263,1.0,10.0,61,0.00,,OVC055,0.11,VWS V14.01,2013-02-03 23:54:00,
2013-02-03 18:59:00,37.4,25.6,30.03,South,173,4.0,10.0,62,0.00,,OVC055,0.11,VWS V14.01,2013-02-03 23:59:00,
2013-02-03 19:00:00,37.3,25.5,30.03,SW,216,3.0,10.0,62,0.00,,OVC055,0.11,VWS V14.01,2013-02-04 00:00:00,
2013-02-03 19:04:00,37.1,25.7,30.03,WNW,292,0.0,6.0,63,0.00,,OVC055,0.11,VWS V14.01,2013-02-04 00:04:00,
2013-02-03 19:09:00,37.0,25.2,30.03,NE,38,1.0,6.0,62,0.00,,OVC055,0.11,VWS V14.01,2013-02-04 00:09:00,
2013-02-03 19:14:00,37.2,25.0,30.03,NW,305,1.0,6.0,61,0.00,,OVC055,0.11,VWS V14.01,2013-02-04 00:14:00,
2013-02-03 19:19:00,37.2,25.4,30.03,NNE,19,1.0,6.0,62,0.00,,OVC055,0.11,VWS V14.01,2013-02-04 00:19:00,
2013-02-03 19:24:00,36.9,25.5,30.03,NNW,333,0.0,6.0,63,0.00,,OVC055,0.11,VWS V14.01,2013-02-04 00:24:00,
2013-02-03 19:29:00,36.5,25.1,30.03,NW,317,1.0,6.0,63,0.00,,OVC055,0.11,VWS V14.01,2013-02-04 00:29:00,
2013-02-03 19:30:00,36.5,25.1,30.03,NW,317,0.0,6.0,63,0.00,,OVC055,0.11,VWS V14.01,2013-02-04 00:30:00,
2013-02-03 19:34:00,36.3,24.5,30.04,South,180,1.0,2.0,62,0.00,,OVC055,0.11,VWS V14.01,2013-02-04 00:34:00,
2013-02-03 19:39:00,36.1,25.1,30.04,NNE,16,0.0,3.0,64,0.00,,OVC055,0.11,VWS V14.01,2013-02-04 00:39:00,
2013-02-03 19:44:00,35.7,25.1,30.05,NW,322,0.0,3.0,65,0.00,,OVC055,0.11,VWS V14.01,2013-02-04 00:44:00,
2013-02-03 19:49:00,35.2,25.0,30.04,NW,322,0.0,3.0,66,0.00,,OVC055,0.11,VWS V14.01,2013-02-04 00:49:00,
2013-02-03 19:54:00,34.8,24.6,30.04,NW,322,0.0,3.0,66,0.00,,OVC055,0.11,VWS V14.01,2013-02-04 00:54:00,
2013-02-03 19:59:00,34.4,25.6,30.04,NW,322,0.0,3.0,70,0.00,,OVC055,0.11,VWS V14.01,2013-02-04 00:59:00,
2013-02-03 20:00:00,34.3,25.5,30.04,NW,322,0.0,3.0,70,0.00,,OVC055,0.11,VWS V14.01,2013-02-04 01:00:00,
2013-02-03 20:04:00,33.9,24.8,30.05,NW,322,2.0,2.0,69,0.00,,OVC055,0.11,VWS V14.01,2013-02-04 01:04:00,
2013-02-03 20:09:00,33.6,24.5,30.05,WNW,290,2.0,3.0,69,0.00,,OVC055,0.11,VWS V14.01,2013-02-04 01:09:00,
2013-02-03 20:14:00,33.4,24.7,30.05,WNW,290,2.0,3.0,70,0.00,,OVC055,0.11,VWS V14.01,2013-02-04 01:14:00,
2013-02-03 20:19:00,33.0,25.3,30.05,ENE,64,0.0,3.0,73,0.00,,OVC055,0.11,VWS V14.01,2013-02-04 01:19:00,
2013-02-03 20:24:00,32.9,24.9,30.05,ENE,64,1.0,3.0,72,0.00,,OVC055,0.11,VWS V14.01,2013-02-04 01:24:00,
2013-02-03 20:29:00,32.8,25.4,30.05,ENE,64,0.0,3.0,74,0.00,,OVC055,0.11,VWS V14.01,2013-02-04 01:29:00,
2013-02-03 20:30:00,32.7,25.3,30.05,ENE,65,0.0,3.0,74,0.00,,OVC055,0.11,VWS V14.01,2013-02-04 01:30:00,
2013-02-03 20:34:00,32.4,25.4,30.05,ENE,65,0.0,0.0,75,0.00,,OVC055,0.11,VWS V14.01,2013-02-04 01:34:00,
2013-02-03 20:39:00,31.8,24.8,30.05,ENE,64,0.0,2.0,75,0.00,,OVC055,0.11,VWS V14.01,2013-02-04 01:39:00,
2013-02-03 20:44:00,31.4,24.7,30.05,ESE,113,1.0,2.0,76,0.00,,OVC055,0.11,VWS V14.01,2013-02-04 01:44:00,
2013-02-03 20:49:00,31.9,23.9,30.05,West,268,1.0,4.0,72,0.00,,OVC055,0.11,VWS V14.01,2013-02-04 01:49:00,
2013-02-03 20:54:00,33.3,23.5,30.05,West,261,1.0,4.0,67,0.00,,OVC055,0.11,VWS V14.01,2013-02-04 01:54:00,
2013-02-03 20:59:00,33.8,24.4,30.05,NNW,346,4.0,4.0,68,0.00,,OVC055,0.11,VWS V14.01,2013-02-04 01:59:00,
2013-02-03 21:00:00,33.7,24.6,30.05,NW,315,3.0,5.0,69,0.00,,OVC055,0.11,VWS V14.01,2013-02-04 02:00:00,
2013-02-03 21:04:00,33.1,24.7,30.05,NW,304,1.0,4.0,71,0.00,,OVC055,0.11,VWS V14.01,2013-02-04 02:04:00,
2013-02-03 21:09:00,32.7,24.4,30.05,WNW,300,0.0,4.0,71,0.00,,OVC055,0.11,VWS V14.01,2013-02-04 02:09:00,
2013-02-03 21:14:00,32.4,25.4,30.05,WNW,300,0.0,4.0,75,0.00,,OVC055,0.11,VWS V14.01,2013-02-04 02:14:00,
2013-02-03 21:19:00,31.8,24.8,30.06,WNW,300,0.0,4.0,75,0.00,,OVC055,0.11,VWS V14.01,2013-02-04 02:19:00,
2013-02-03 21:24:00,31.2,24.2,30.06,WNW,300,1.0,4.0,75,0.00,,OVC055,0.11,VWS V14.01,2013-02-04 02:24:00,
2013-02-03 21:29:00,31.1,24.1,30.05,WNW,300,0.0,4.0,75,0.00,,OVC055,0.11,VWS V14.01,2013-02-04 02:29:00,
2013-02-03 21:30:00,31.1,24.1,30.05,WNW,300,0.0,4.0,75,0.00,,OVC055,0.11,VWS V14.01,2013-02-04 02:30:00,
2013-02-03 21:33:00,30.9,24.9,30.05,NW,306,0.0,2.0,78,0.00,,OVC055,0.11,VWS V14.01,2013-02-04 02:33:00,
2013-02-03 21:38:00,30.3,24.3,30.05,West,275,1.0,2.0,78,0.00,,OVC055,0.11,VWS V14.01,2013-02-04 02:38:00,
2013-02-03 21:43:00,30.0,24.0,30.06,West,275,1.0,2.0,78,0.00,,OVC055,0.11,VWS V14.01,2013-02-04 02:43:00,
2013-02-03 21:48:00,29.9,23.9,30.06,West,275,0.0,2.0,78,0.00,,OVC055,0.11,VWS V14.01,2013-02-04 02:48:00,
2013-02-03 21:53:00,29.8,24.4,30.06,West,275,0.0,2.0,80,0.00,,OVC055,0.11,VWS V14.01,2013-02-04 02:53:00,
2013-02-03 21:58:00,29.8,25.0,30.06,West,275,0.0,2.0,82,0.00,,OVC055,0.11,VWS V14.01,2013-02-04 02:58:00,
2013-02-03 22:00:00,29.7,24.9,30.06,West,275,2.0,2.0,82,0.00,,OVC055,0.11,VWS V14.01,2013-02-04 03:00:00,
2013-02-03 22:03:00,29.4,24.6,30.05,West,275,1.0,2.0,82,0.00,,OVC055,0.11,VWS V14.01,2013-02-04 03:03:00,
2013-02-03 22:08:00,29.2,24.1,30.06,West,275,0.0,2.0,81,0.00,,OVC055,0.11,VWS V14.01,2013-02-04 03:08:00,
2013-02-03 22:13:00,29.0,23.6,30.06,West,275,0.0,2.0,80,0.00,,OVC055,0.11,VWS V14.01,2013-02-04 03:13:00,
2013-02-03 22:18:00,28.8,24.0,30.05,West,275,0.0,2.0,82,0.00,,OVC055,0.11,VWS V14.01,2013-02-04 03:18:00,
2013-02-03 22:23:00,28.5,23.7,30.06,West,275,0.0,2.0,82,0.00,,OVC055,0.11,VWS V14.01,2013-02-04 03:23:00,
2013-02-03 22:28:00,28.4,23.6,30.06,West,275,0.0,2.0,82,0.00,,OVC055,0.11,VWS V14.01,2013-02-04 03:28:00,
2013-02-03 22:30:00,28.4,23.6,30.06,West,275,0.0,2.0,82,0.00,,OVC055,0.11,VWS V14.01,2013-02-04 03:30:00,
2013-02-03 22:33:00,28.4,23.9,30.06,West,275,0.0,1.0,83,0.00,,OVC055,0.11,VWS V14.01,2013-02-04 03:33:00,
2013-02-03 22:38:00,28.3,24.1,30.07,West,275,1.0,2.0,84,0.00,,OVC055,0.11,VWS V14.01,2013-02-04 03:38:00,
2013-02-03 22:43:00,28.1,23.6,30.06,West,275,0.0,2.0,83,0.00,,OVC055,0.11,VWS V14.01,2013-02-04 03:43:00,
2013-02-03 22:48:00,28.2,24.0,30.07,West,275,0.0,2.0,84,0.00,,OVC055,0.11,VWS V14.01,2013-02-04 03:48:00,
2013-02-03 22:53:00,28.1,23.9,30.07,West,275,0.0,2.0,84,0.00,,OVC055,0.11,VWS V14.01,2013-02-04 03:53:00,
2013-02-03 22:58:00,28.1,23.6,30.06,West,275,0.0,2.0,83,0.00,,OVC055,0.11,VWS V14.01,2013-02-04 03:58:00,
2013-02-03 23:00:00,28.1,23.6,30.06,West,275,0.0,2.0,83,0.00,,OVC055,0.11,VWS V14.01,2013-02-04 04:00:00,
2013-02-03 23:03:00,28.3,23.5,30.07,West,275,0.0,1.0,82,0.00,,OVC055,0.11,VWS V14.01,2013-02-04 04:03:00,
2013-02-03 23:08:00,28.3,23.8,30.07,West,275,1.0,1.0,83,0.00,,OVC055,0.11,VWS V14.01,2013-02-04 04:08:00,
2013-02-03 23:13:00,28.2,24.3,30.07,West,275,0.0,1.0,85,0.00,,OVC055,0.11,VWS V14.01,2013-02-04 04:13:00,
2013-02-03 23:18:00,27.8,23.9,30.08,West,275,0.0,2.0,85,0.00,,OVC055,0.11,VWS V14.01,2013-02-04 04:18:00,
2013-02-03 23:23:00,27.5,23.9,30.08,West,275,0.0,2.0,86,0.00,,OVC055,0.11,VWS V14.01,2013-02-04 04:23:00,
2013-02-03 23:28:00,27.5,23.6,30.08,West,275,0.0,2.0,85,0.00,,OVC055,0.11,VWS V14.01,2013-02-04 04:28:00,
2013-02-03 23:30:00,27.5,23.6,30.08,West,275,0.0,2.0,85,0.00,,OVC055,0.11,VWS V14.01,2013-02-04 04:30:00,
2013-02-03 23:33:00,27.5,23.6,30.08,West,275,2.0,2.0,85,0.00,,OVC055,0.11,VWS V14.01,2013-02-04 04:33:00,
2013-02-03 23:38:00,27.6,24.0,30.08,West,275,1.0,2.0,86,0.00,,OVC055,0.11,VWS V14.01,2013-02-04 04:38:00,
2013-02-03 23:43:00,27.5,23.6,30.07,West,275,1.0,2.0,85,0.00,,OVC055,0.11,VWS V14.01,2013-02-04 04:43:00,
2013-02-03 23:48:00,27.6,23.7,30.08,West,275,0.0,2.0,85,0.00,,OVC055,0.11,VWS V14.01,2013-02-04 04:48:00,
2013-02-03 23:53:00,27.7,23.2,30.08,West,275,0.0,2.0,83,0.00,,OVC055,0.11,VWS V14.01,2013-02-04 04:53:00,
2013-02-03 23:58:00,27.6,23.4,30.08,West,275,0.0,2.0,84,0.00,,OVC055,0.11,VWS V14.01,2013-02-04 04:58:00,